Terminal Aerodrome Forecast
Issued by NWS Miami, FL

Home | Current Version | Previous Version | Text Only | Print | Product List | Glossary On
Versions: 1 2 3 4 5 6 7 8 9 10 11 12 13 14 15 16 17 18 19 20 21 22 23 24 25
000
FTUS42 KMFL 252103 AAA
TAFAPF
TAF AMD
KAPF 252103Z 2521/2618 28010KT P6SM VCTS SCT030CB BKN060
      TEMPO 2522/2524 VRB20G30KT 2SM TSRA SCT015 BKN025CB OVC035
     FM260100 VRB03KT P6SM SCT030 SCT250
     FM261500 16007KT P6SM SCT030 SCT050=

USA.gov is the U.S. government's official web portal to all federal, state and local government web resources and services.